Time;durP1;ratioP1;P1;durP2;ratioP2;P2;SDS_P1;SDS_P2;PMS_P1;PMS_P2;Temp;Humidity;BMP_temperature;BMP_pressure;BME280_temperature;BME280_humidity;BME280_pressure;Samples;Min_cycle;Max_cycle;Signal;HPM_P1;HPM_P2
2022/12/28 00:00:15;;;;;;;3.65;1.80;;;;;;;;;;5116849;28;20035;-79
2022/12/28 00:02:40;;;;;;;1.75;1.35;;;;;;;;;;5098989;28;20035;-79
2022/12/28 00:05:06;;;;;;;2.75;1.58;;;;;;;;;;5115271;28;20038;-79
2022/12/28 00:07:31;;;;;;;2.75;1.50;;;;;;;;;;5115297;28;20043;-79
2022/12/28 00:09:56;;;;;;;3.17;1.52;;;;;;;;;;5116902;28;20028;-80
2022/12/28 00:12:22;;;;;;;3.50;1.60;;;;;;;;;;5080849;28;20019;-79
2022/12/28 00:14:47;;;;;;;6.68;1.60;;;;;;;;;;5115649;28;20028;-79
2022/12/28 00:17:13;;;;;;;2.42;1.30;;;;;;;;;;5116381;28;20077;-79
2022/12/28 00:19:38;;;;;;;3.13;1.42;;;;;;;;;;5114884;28;20031;-80
2022/12/28 00:22:03;;;;;;;2.03;1.50;;;;;;;;;;5116435;28;20019;-78
2022/12/28 00:24:29;;;;;;;3.80;1.63;;;;;;;;;;5115250;28;20031;-79
2022/12/28 00:26:55;;;;;;;2.30;1.50;;;;;;;;;;5116353;28;20386;-79
2022/12/28 00:29:21;;;;;;;3.65;1.63;;;;;;;;;;5116282;28;20019;-79
2022/12/28 00:31:46;;;;;;;2.28;1.48;;;;;;;;;;5116463;28;20035;-79
2022/12/28 00:34:12;;;;;;;1.63;1.40;;;;;;;;;;5116627;28;20051;-79
2022/12/28 00:36:37;;;;;;;2.47;1.45;;;;;;;;;;5114944;28;20019;-79
2022/12/28 00:39:03;;;;;;;3.15;1.50;;;;;;;;;;5114768;28;20371;-78
2022/12/28 00:41:28;;;;;;;2.88;1.70;;;;;;;;;;5114362;28;20024;-79
2022/12/28 00:43:53;;;;;;;2.75;1.70;;;;;;;;;;5115885;28;20149;-79
2022/12/28 00:46:19;;;;;;;3.28;1.58;;;;;;;;;;5114573;28;20039;-79
2022/12/28 00:48:44;;;;;;;1.98;1.40;;;;;;;;;;5114526;28;20482;-78
2022/12/28 00:51:15;;;;;;;2.30;1.48;;;;;;;;;;5115966;28;20020;-79
2022/12/28 00:53:41;;;;;;;3.45;1.38;;;;;;;;;;5114414;28;20024;-79
2022/12/28 00:56:08;;;;;;;2.08;1.40;;;;;;;;;;5114180;28;20114;-79
2022/12/28 00:58:34;;;;;;;2.30;1.20;;;;;;;;;;5114491;28;20122;-78
2022/12/28 01:01:00;;;;;;;2.35;1.40;;;;;;;;;;5113934;28;20118;-78
2022/12/28 01:03:25;;;;;;;3.67;1.58;;;;;;;;;;5114082;28;20482;-78
2022/12/28 01:05:51;;;;;;;2.60;1.40;;;;;;;;;;5114181;28;20035;-78
2022/12/28 01:08:16;;;;;;;1.52;1.40;;;;;;;;;;5115623;28;20127;-78
2022/12/28 01:10:41;;;;;;;1.95;1.50;;;;;;;;;;5114628;28;20039;-79
2022/12/28 01:13:07;;;;;;;2.75;1.40;;;;;;;;;;5080427;28;20042;-79
2022/12/28 01:15:32;;;;;;;3.15;1.42;;;;;;;;;;5114123;28;20023;-78
2022/12/28 01:17:57;;;;;;;4.15;1.60;;;;;;;;;;5115039;28;20355;-78
2022/12/28 01:20:23;;;;;;;3.33;1.35;;;;;;;;;;5115131;28;20084;-78
2022/12/28 01:22:48;;;;;;;3.13;1.65;;;;;;;;;;5113675;28;20028;-78
2022/12/28 01:25:13;;;;;;;1.70;1.30;;;;;;;;;;5079575;28;20122;-78
2022/12/28 01:27:39;;;;;;;1.27;1.00;;;;;;;;;;5115258;28;20050;-78
2022/12/28 01:30:05;;;;;;;1.67;1.30;;;;;;;;;;5113613;28;20114;-79
2022/12/28 01:32:30;;;;;;;3.03;1.70;;;;;;;;;;5113873;28;20028;-78
2022/12/28 01:34:55;;;;;;;2.08;1.25;;;;;;;;;;5115351;28;20038;-79
2022/12/28 01:37:21;;;;;;;2.67;1.42;;;;;;;;;;5115170;28;20036;-79
2022/12/28 01:39:46;;;;;;;1.83;1.30;;;;;;;;;;5113623;28;20481;-79
2022/12/28 01:42:17;;;;;;;1.70;1.20;;;;;;;;;;5114755;28;20362;-79
2022/12/28 01:44:48;;;;;;;1.20;1.10;;;;;;;;;;5115110;28;20055;-79
2022/12/28 01:47:18;;;;;;;3.00;1.65;;;;;;;;;;5113497;28;20084;-79
2022/12/28 01:49:49;;;;;;;3.80;1.33;;;;;;;;;;5113114;28;20036;-78
2022/12/28 01:52:30;;;;;;;1.40;1.30;;;;;;;;;;5113355;28;20326;-78
2022/12/28 01:55:08;;;;;;;2.55;1.20;;;;;;;;;;5096960;28;20030;-78
2022/12/28 01:57:38;;;;;;;2.08;1.25;;;;;;;;;;5113299;28;20024;-78
2022/12/28 02:00:08;;;;;;;4.00;1.42;;;;;;;;;;5096171;28;20034;-78
2022/12/28 02:02:34;;;;;;;2.35;1.40;;;;;;;;;;5095974;28;20046;-78
2022/12/28 02:05:00;;;;;;;2.53;1.48;;;;;;;;;;5096374;28;20027;-79
2022/12/28 02:07:37;;;;;;;2.13;1.30;;;;;;;;;;5113170;28;20111;-78
2022/12/28 02:10:03;;;;;;;1.88;1.27;;;;;;;;;;5112947;28;20040;-79
2022/12/28 02:12:29;;;;;;;2.38;1.30;;;;;;;;;;5096413;28;20030;-78
2022/12/28 02:14:54;;;;;;;2.45;1.40;;;;;;;;;;5113138;28;20028;-78
2022/12/28 02:17:20;;;;;;;2.40;1.33;;;;;;;;;;5112971;28;20395;-78
2022/12/28 02:19:46;;;;;;;1.80;1.10;;;;;;;;;;5114048;28;20115;-77
2022/12/28 02:22:37;;;;;;;1.15;1.05;;;;;;;;;;5095708;28;20439;-78
2022/12/28 02:25:46;;;;;;;1.90;1.38;;;;;;;;;;5112589;28;20038;-78
2022/12/28 02:28:49;;;;;;;1.58;1.23;;;;;;;;;;5034308;28;20033;-78
2022/12/28 02:31:28;;;;;;;5.35;1.23;;;;;;;;;;5051267;28;20052;-78
2022/12/28 02:34:50;;;;;;;2.30;1.25;;;;;;;;;;5096575;28;20080;-78
2022/12/28 02:37:19;;;;;;;1.75;1.25;;;;;;;;;;5034123;28;20032;-78
2022/12/28 02:39:49;;;;;;;1.40;1.27;;;;;;;;;;5034442;28;20036;-80
2022/12/28 02:42:16;;;;;;;2.10;1.05;;;;;;;;;;5051168;28;20476;-79
2022/12/28 02:50:17;;;;;;;;;;;;;;;;;;5037260;28;20148;-78
2022/12/28 02:52:57;;;;;;;1.53;1.20;;;;;;;;;;5051005;28;20410;-80
2022/12/28 02:58:47;;;;;;;1.55;1.20;;;;;;;;;;5051250;28;20075;-80
2022/12/28 03:01:18;;;;;;;3.42;1.23;;;;;;;;;;5050762;28;20063;-80
2022/12/28 03:04:05;;;;;;;1.90;1.48;;;;;;;;;;5050641;28;20395;-81
2022/12/28 03:09:29;;;;;;;2.03;1.20;;;;;;;;;;5113333;28;20516;-80
2022/12/28 03:12:25;;;;;;;1.90;1.25;;;;;;;;;;5113317;28;20034;-80
2022/12/28 03:14:55;;;;;;;1.55;1.10;;;;;;;;;;5112440;28;20023;-81
2022/12/28 03:31:17;;;;;;;2.00;1.30;;;;;;;;;;5112044;28;20160;-80
2022/12/28 03:33:48;;;;;;;2.80;1.10;;;;;;;;;;5112133;28;20028;-80
2022/12/28 03:36:22;;;;;;;0.90;0.90;;;;;;;;;;5111897;28;20098;-80
2022/12/28 03:38:53;;;;;;;;;;;;;;;;;;5112624;28;20457;-78
2022/12/28 03:41:30;;;;;;;1.10;1.00;;;;;;;;;;5112869;28;19911;-80
2022/12/28 03:44:06;;;;;;;2.00;1.20;;;;;;;;;;5111732;28;20034;-80
2022/12/28 03:46:52;;;;;;;1.33;1.20;;;;;;;;;;5111827;28;20478;-80
2022/12/28 03:49:18;;;;;;;3.03;1.10;;;;;;;;;;5115623;28;20138;-79
2022/12/28 03:51:45;;;;;;;1.60;1.20;;;;;;;;;;5115727;28;20176;-80
2022/12/28 03:54:14;;;;;;;2.28;1.20;;;;;;;;;;5115540;28;20027;-80
2022/12/28 03:56:49;;;;;;;1.20;1.10;;;;;;;;;;5115518;28;20469;-80
2022/12/28 03:59:15;;;;;;;1.17;1.10;;;;;;;;;;5115748;28;20036;-80
2022/12/28 04:01:40;;;;;;;4.65;1.08;;;;;;;;;;5116584;28;20042;-80
2022/12/28 04:04:06;;;;;;;3.65;1.20;;;;;;;;;;5116514;28;20032;-80
2022/12/28 04:06:31;;;;;;;1.13;1.02;;;;;;;;;;5115306;28;20038;-79
2022/12/28 04:08:57;;;;;;;3.10;1.27;;;;;;;;;;5116906;28;20027;-80
2022/12/28 04:11:22;;;;;;;2.47;1.42;;;;;;;;;;5116522;28;20043;-79
2022/12/28 04:13:47;;;;;;;1.55;1.30;;;;;;;;;;5116396;28;20031;-80
2022/12/28 04:16:13;;;;;;;1.83;1.30;;;;;;;;;;5116271;28;20046;-80
2022/12/28 04:18:40;;;;;;;1.88;1.30;;;;;;;;;;5116879;28;20027;-80
2022/12/28 04:21:06;;;;;;;1.13;1.10;;;;;;;;;;5097975;28;20023;-80
2022/12/28 04:23:31;;;;;;;1.55;1.30;;;;;;;;;;5097799;28;20035;-80
2022/12/28 04:25:57;;;;;;;2.28;1.23;;;;;;;;;;5116013;28;20035;-80
2022/12/28 04:28:23;;;;;;;2.92;1.15;;;;;;;;;;5116053;27;20024;-80
2022/12/28 04:30:48;;;;;;;1.98;1.60;;;;;;;;;;5116253;28;20157;-79
2022/12/28 04:33:13;;;;;;;1.23;1.00;;;;;;;;;;5116906;28;20047;-80
2022/12/28 04:35:39;;;;;;;7.15;1.25;;;;;;;;;;5115920;28;20023;-80
2022/12/28 04:38:04;;;;;;;1.20;1.10;;;;;;;;;;5114938;28;20070;-80
2022/12/28 04:40:30;;;;;;;1.30;1.02;;;;;;;;;;5115875;28;20132;-80
2022/12/28 04:42:55;;;;;;;3.13;1.40;;;;;;;;;;5114467;28;20501;-80
2022/12/28 04:45:20;;;;;;;2.17;1.30;;;;;;;;;;5115817;28;20027;-80
2022/12/28 04:47:46;;;;;;;1.60;1.20;;;;;;;;;;5115029;28;20035;-80
2022/12/28 04:50:11;;;;;;;2.50;1.40;;;;;;;;;;5114226;28;20485;-79
2022/12/28 04:52:36;;;;;;;5.05;1.20;;;;;;;;;;5114589;28;20035;-79
2022/12/28 04:55:02;;;;;;;1.55;1.20;;;;;;;;;;5115706;27;20032;-79
2022/12/28 04:57:27;;;;;;;1.45;1.10;;;;;;;;;;5097376;28;20088;-79
2022/12/28 04:59:53;;;;;;;1.40;1.30;;;;;;;;;;5114143;28;20035;-80
2022/12/28 05:02:18;;;;;;;1.30;1.20;;;;;;;;;;5116222;28;20034;-79
2022/12/28 05:04:43;;;;;;;1.45;1.20;;;;;;;;;;5115723;28;20036;-79
2022/12/28 05:07:09;;;;;;;2.42;1.17;;;;;;;;;;5114707;28;20592;-80
2022/12/28 05:09:34;;;;;;;2.33;1.20;;;;;;;;;;5115656;28;20038;-80
2022/12/28 05:11:59;;;;;;;1.55;1.23;;;;;;;;;;5114300;28;20023;-79
2022/12/28 05:14:25;;;;;;;1.45;1.30;;;;;;;;;;5115620;28;20478;-79
2022/12/28 05:16:51;;;;;;;2.78;1.60;;;;;;;;;;5115462;28;20037;-79
2022/12/28 05:19:16;;;;;;;2.30;1.23;;;;;;;;;;5115333;28;20397;-80
2022/12/28 05:21:41;;;;;;;1.52;1.20;;;;;;;;;;5115601;28;20039;-79
2022/12/28 05:24:07;;;;;;;1.80;1.30;;;;;;;;;;5113993;28;20023;-79
2022/12/28 05:26:33;;;;;;;1.80;1.20;;;;;;;;;;5096917;28;20027;-79
2022/12/28 05:28:59;;;;;;;1.80;1.20;;;;;;;;;;5113925;28;20068;-79
2022/12/28 05:31:25;;;;;;;1.30;1.20;;;;;;;;;;5113798;28;20024;-80
2022/12/28 05:33:50;;;;;;;1.67;1.13;;;;;;;;;;5113822;28;20080;-78
2022/12/28 05:36:21;;;;;;;1.30;1.20;;;;;;;;;;5096789;28;20062;-78
2022/12/28 05:38:47;;;;;;;1.88;1.30;;;;;;;;;;5115350;28;20024;-78
2022/12/28 05:41:14;;;;;;;3.58;1.38;;;;;;;;;;5114887;28;20035;-78
2022/12/28 05:43:39;;;;;;;3.67;1.20;;;;;;;;;;5114107;28;20027;-78
2022/12/28 05:46:07;;;;;;;1.02;1.00;;;;;;;;;;5113859;28;20496;-78
2022/12/28 05:48:33;;;;;;;1.08;1.00;;;;;;;;;;5113644;28;20031;-78
2022/12/28 05:51:02;;;;;;;3.55;1.00;;;;;;;;;;5113465;28;20097;-78
2022/12/28 05:53:29;;;;;;;1.70;1.10;;;;;;;;;;5113679;28;20031;-78
2022/12/28 05:56:03;;;;;;;1.33;0.98;;;;;;;;;;5114782;28;20023;-77
2022/12/28 05:58:28;;;;;;;1.25;1.10;;;;;;;;;;5113538;28;20034;-75
2022/12/28 06:01:05;;;;;;;1.38;1.00;;;;;;;;;;5096100;28;20032;-78
2022/12/28 06:03:30;;;;;;;9.35;1.77;;;;;;;;;;5114864;28;20024;-78
2022/12/28 06:05:56;;;;;;;3.75;1.20;;;;;;;;;;5096323;28;20024;-79
2022/12/28 06:08:21;;;;;;;5.70;1.92;;;;;;;;;;5114499;28;20039;-78
2022/12/28 06:10:46;;;;;;;5.80;1.88;;;;;;;;;;5113726;28;20128;-80
2022/12/28 06:13:12;;;;;;;5.47;1.83;;;;;;;;;;5096409;28;20059;-79
2022/12/28 06:15:37;;;;;;;6.50;1.73;;;;;;;;;;5114647;28;20385;-78
2022/12/28 06:18:03;;;;;;;6.85;1.63;;;;;;;;;;5096119;28;20126;-78
2022/12/28 06:20:28;;;;;;;15.20;1.75;;;;;;;;;;5114246;28;20035;-79
2022/12/28 06:22:53;;;;;;;6.65;1.70;;;;;;;;;;5114214;28;20035;-75
2022/12/28 06:25:19;;;;;;;3.22;1.50;;;;;;;;;;5114146;28;20035;-78
2022/12/28 06:27:44;;;;;;;2.35;1.35;;;;;;;;;;5114174;28;20071;-78
2022/12/28 06:30:11;;;;;;;2.47;1.33;;;;;;;;;;5113028;28;20034;-77
2022/12/28 06:32:36;;;;;;;5.60;1.25;;;;;;;;;;5114903;28;20034;-77
2022/12/28 06:35:01;;;;;;;4.90;1.35;;;;;;;;;;5114235;28;20035;-77
2022/12/28 06:37:27;;;;;;;2.53;1.40;;;;;;;;;;5112819;28;20038;-78
2022/12/28 06:39:52;;;;;;;4.20;1.20;;;;;;;;;;5113968;28;20032;-78
2022/12/28 06:42:17;;;;;;;1.90;1.25;;;;;;;;;;5114448;28;20589;-78
2022/12/28 06:44:43;;;;;;;1.52;1.10;;;;;;;;;;5114218;28;20094;-77
2022/12/28 06:47:08;;;;;;;4.13;1.33;;;;;;;;;;5114199;28;20028;-77
2022/12/28 06:49:33;;;;;;;1.80;1.15;;;;;;;;;;5112512;28;20047;-78
2022/12/28 06:51:59;;;;;;;2.60;1.02;;;;;;;;;;5113853;28;20443;-78
2022/12/28 06:54:24;;;;;;;3.10;1.10;;;;;;;;;;5095659;28;20027;-78
2022/12/28 06:56:53;;;;;;;2.70;1.10;;;;;;;;;;5080632;28;20039;-77
2022/12/28 06:59:18;;;;;;;3.13;1.00;;;;;;;;;;5092371;28;20036;-78
2022/12/28 07:01:44;;;;;;;4.30;1.23;;;;;;;;;;5093497;28;20034;-76
2022/12/28 07:04:10;;;;;;;7.25;1.48;;;;;;;;;;5092255;28;20399;-77
2022/12/28 07:06:38;;;;;;;1.55;1.10;;;;;;;;;;5092166;28;20028;-77
2022/12/28 07:09:06;;;;;;;3.45;1.30;;;;;;;;;;5092154;28;20048;-77
2022/12/28 07:11:32;;;;;;;1.40;1.30;;;;;;;;;;5093616;28;20019;-77
2022/12/28 07:13:57;;;;;;;2.13;1.10;;;;;;;;;;5092154;28;20107;-77
2022/12/28 07:16:24;;;;;;;6.00;1.98;;;;;;;;;;5093245;28;20024;-76
2022/12/28 07:18:50;;;;;;;2.50;1.38;;;;;;;;;;5092089;28;20486;-77
2022/12/28 07:21:17;;;;;;;1.15;1.00;;;;;;;;;;5091871;28;20063;-76
2022/12/28 07:23:42;;;;;;;1.98;0.90;;;;;;;;;;5095004;28;20032;-77
2022/12/28 07:26:10;;;;;;;1.88;0.80;;;;;;;;;;5095645;28;20024;-77
2022/12/28 07:28:37;;;;;;;1.20;0.80;;;;;;;;;;5079096;28;20070;-77
2022/12/28 07:31:11;;;;;;;1.83;1.02;;;;;;;;;;5078248;28;20036;-77
2022/12/28 07:33:37;;;;;;;1.67;1.10;;;;;;;;;;5096797;28;20024;-77
2022/12/28 07:36:07;;;;;;;0.82;0.82;;;;;;;;;;5095473;28;20034;-77
2022/12/28 07:38:33;;;;;;;1.92;1.20;;;;;;;;;;5095613;28;20066;-78
2022/12/28 07:41:03;;;;;;;1.40;1.08;;;;;;;;;;5095599;28;20406;-77
2022/12/28 07:43:29;;;;;;;2.65;0.93;;;;;;;;;;5079009;28;20497;-82
2022/12/28 07:46:00;;;;;;;1.70;1.20;;;;;;;;;;5098401;28;20030;-83
2022/12/28 07:48:28;;;;;;;2.60;1.20;;;;;;;;;;5115689;28;20083;-81
2022/12/28 07:50:53;;;;;;;7.00;1.13;;;;;;;;;;5116720;28;20054;-79
2022/12/28 07:53:19;;;;;;;5.43;1.52;;;;;;;;;;5116853;28;20031;-79
2022/12/28 07:55:53;;;;;;;2.85;0.90;;;;;;;;;;5098694;28;20027;-86
2022/12/28 07:58:19;;;;;;;1.77;1.13;;;;;;;;;;5115684;28;20032;-82
2022/12/28 08:00:44;;;;;;;11.07;1.13;;;;;;;;;;5117471;28;20042;-82
2022/12/28 08:03:09;;;;;;;1.08;0.88;;;;;;;;;;5095616;28;20179;-83
2022/12/28 08:05:35;;;;;;;1.80;1.08;;;;;;;;;;5096592;28;20032;-83
2022/12/28 08:08:00;;;;;;;1.00;0.90;;;;;;;;;;5114782;28;20473;-83
2022/12/28 08:10:26;;;;;;;3.65;1.10;;;;;;;;;;5116918;28;20070;-83
2022/12/28 08:12:51;;;;;;;1.35;1.10;;;;;;;;;;5115660;28;20436;-84
2022/12/28 08:15:16;;;;;;;2.63;1.05;;;;;;;;;;5116901;28;20055;-83
2022/12/28 08:17:42;;;;;;;1.02;0.90;;;;;;;;;;5117786;28;20047;-83
2022/12/28 08:20:07;;;;;;;1.10;0.90;;;;;;;;;;5116877;28;20038;-85
2022/12/28 08:22:33;;;;;;;2.22;1.08;;;;;;;;;;5117200;28;20040;-82
2022/12/28 08:24:58;;;;;;;5.40;1.05;;;;;;;;;;5115994;28;20067;-81
2022/12/28 08:27:23;;;;;;;5.25;1.00;;;;;;;;;;5116313;28;20031;-79
2022/12/28 08:29:49;;;;;;;2.35;0.98;;;;;;;;;;5116244;28;20043;-79
2022/12/28 08:32:14;;;;;;;1.45;1.00;;;;;;;;;;5116787;28;20032;-80
2022/12/28 08:34:40;;;;;;;1.27;0.80;;;;;;;;;;5114439;28;20046;-82
2022/12/28 08:37:05;;;;;;;2.45;0.90;;;;;;;;;;5117401;28;20023;-82
2022/12/28 08:39:30;;;;;;;2.08;1.10;;;;;;;;;;5116812;28;20030;-82
2022/12/28 08:41:56;;;;;;;0.93;0.90;;;;;;;;;;5117164;28;20077;-82
2022/12/28 08:44:21;;;;;;;1.65;0.95;;;;;;;;;;5116103;28;20272;-83
2022/12/28 08:46:46;;;;;;;1.10;1.00;;;;;;;;;;5115159;28;20023;-85
2022/12/28 08:49:12;;;;;;;2.83;0.80;;;;;;;;;;5115195;28;20033;-82
2022/12/28 08:51:41;;;;;;;1.85;0.90;;;;;;;;;;5114856;28;20516;-82
2022/12/28 08:54:10;;;;;;;2.42;0.98;;;;;;;;;;5115586;28;20096;-81
2022/12/28 08:56:37;;;;;;;1.83;0.90;;;;;;;;;;5114767;28;20054;-81
2022/12/28 08:59:03;;;;;;;1.20;0.88;;;;;;;;;;5114998;28;20466;-80
2022/12/28 09:01:31;;;;;;;1.05;0.77;;;;;;;;;;5114974;28;20101;-81
2022/12/28 09:03:58;;;;;;;1.55;0.85;;;;;;;;;;5114774;28;20438;-81
2022/12/28 09:06:27;;;;;;;1.40;1.00;;;;;;;;;;5115204;28;20457;-81
2022/12/28 09:08:54;;;;;;;0.90;0.70;;;;;;;;;;5115105;28;20039;-81
2022/12/28 09:11:20;;;;;;;2.85;0.85;;;;;;;;;;5114586;28;20107;-80
2022/12/28 09:13:46;;;;;;;1.38;0.80;;;;;;;;;;5114611;28;20481;-79
2022/12/28 09:16:14;;;;;;;1.55;0.90;;;;;;;;;;5114587;28;20032;-83
2022/12/28 09:18:40;;;;;;;0.90;0.80;;;;;;;;;;5115792;28;20431;-81
2022/12/28 09:21:12;;;;;;;1.33;0.80;;;;;;;;;;5114802;28;20023;-81
2022/12/28 09:23:37;;;;;;;2.03;0.93;;;;;;;;;;5115356;28;20027;-81
2022/12/28 09:26:04;;;;;;;0.93;0.82;;;;;;;;;;5114823;28;20050;-81
2022/12/28 09:28:30;;;;;;;1.45;0.80;;;;;;;;;;5116700;28;20473;-82
2022/12/28 09:30:55;;;;;;;0.98;0.85;;;;;;;;;;5115828;28;20039;-81
2022/12/28 09:36:04;;;;;;;1.17;0.68;;;;;;;;;;5115665;28;20046;-83
2022/12/28 09:38:35;;;;;;;1.33;0.80;;;;;;;;;;5115022;28;20509;-82
2022/12/28 09:41:00;;;;;;;0.80;0.80;;;;;;;;;;5115228;28;20088;-85
2022/12/28 09:43:26;;;;;;;1.48;0.90;;;;;;;;;;5114566;28;20032;-87
2022/12/28 09:46:02;;;;;;;0.95;0.73;;;;;;;;;;5114783;28;20436;-84
2022/12/28 09:48:29;;;;;;;0.80;0.80;;;;;;;;;;5096866;28;20027;-83
2022/12/28 09:50:55;;;;;;;0.80;0.73;;;;;;;;;;5096792;28;20054;-86
2022/12/28 09:53:29;;;;;;;1.35;0.80;;;;;;;;;;5114996;28;20428;-83
2022/12/28 09:56:05;;;;;;;1.50;0.70;;;;;;;;;;5095388;28;20475;-79
2022/12/28 09:58:32;;;;;;;1.70;1.00;;;;;;;;;;5113401;28;20020;-80
2022/12/28 10:00:59;;;;;;;2.72;0.90;;;;;;;;;;5113413;28;20076;-84
2022/12/28 10:03:36;;;;;;;1.48;0.90;;;;;;;;;;5113319;28;20481;-85
2022/12/28 10:06:02;;;;;;;2.53;0.80;;;;;;;;;;5113603;28;20023;-87
2022/12/28 10:08:28;;;;;;;1.30;0.80;;;;;;;;;;5113261;28;20023;-81
2022/12/28 10:10:58;;;;;;;1.08;0.80;;;;;;;;;;5112800;28;20030;-81
2022/12/28 10:13:27;;;;;;;3.30;1.15;;;;;;;;;;5112904;28;20023;-80
2022/12/28 10:15:53;;;;;;;1.58;0.77;;;;;;;;;;5113056;28;20031;-82
2022/12/28 10:18:23;;;;;;;1.20;0.93;;;;;;;;;;5113280;28;20032;-80
2022/12/28 10:20:48;;;;;;;0.75;0.75;;;;;;;;;;5095855;28;20375;-81
2022/12/28 10:23:18;;;;;;;3.22;0.82;;;;;;;;;;5112897;28;20047;-79
2022/12/28 10:25:43;;;;;;;1.38;0.82;;;;;;;;;;5093908;28;20032;-82
2022/12/28 10:28:09;;;;;;;0.98;0.70;;;;;;;;;;5106630;28;20023;-82
2022/12/28 10:30:45;;;;;;;1.58;0.93;;;;;;;;;;5112903;28;20028;-81
2022/12/28 10:33:16;;;;;;;1.25;0.85;;;;;;;;;;5112223;28;20028;-81
2022/12/28 10:35:49;;;;;;;4.13;0.80;;;;;;;;;;5108323;28;20024;-79
2022/12/28 10:38:22;;;;;;;1.27;1.00;;;;;;;;;;5111795;28;20028;-78
2022/12/28 10:40:58;;;;;;;;;;;;;;;;;;5113499;28;20027;-78
2022/12/28 10:43:30;;;;;;;3.47;0.88;;;;;;;;;;5111768;28;19922;-79
2022/12/28 10:45:56;;;;;;;1.15;0.80;;;;;;;;;;5094536;28;20382;-78
2022/12/28 10:48:26;;;;;;;1.98;0.90;;;;;;;;;;5111460;28;20084;-83
2022/12/28 10:51:01;;;;;;;1.08;0.85;;;;;;;;;;5112823;28;20043;-82
2022/12/28 10:53:32;;;;;;;1.27;1.00;;;;;;;;;;5110836;28;20027;-79
2022/12/28 10:56:05;;;;;;;4.28;0.95;;;;;;;;;;5111627;28;20053;-81
2022/12/28 10:58:31;;;;;;;1.27;0.93;;;;;;;;;;5112376;28;20477;-82
2022/12/28 11:01:06;;;;;;;0.85;0.75;;;;;;;;;;5095255;28;20023;-86
2022/12/28 11:03:34;;;;;;;2.33;0.90;;;;;;;;;;5112014;28;20027;-82
2022/12/28 11:06:27;;;;;;;1.42;1.00;;;;;;;;;;5112351;28;20024;-81
2022/12/28 11:09:13;;;;;;;1.63;1.05;;;;;;;;;;5109450;28;20114;-82
2022/12/28 11:11:39;;;;;;;1.55;0.90;;;;;;;;;;5108483;28;20030;-81
2022/12/28 11:14:34;;;;;;;1.20;0.90;;;;;;;;;;5109873;28;20042;-82
2022/12/28 11:17:22;;;;;;;2.53;1.00;;;;;;;;;;5112258;28;20506;-84
2022/12/28 11:19:50;;;;;;;7.05;1.17;;;;;;;;;;5095496;28;20116;-84
2022/12/28 11:22:27;;;;;;;1.48;1.00;;;;;;;;;;5113368;28;20020;-85
2022/12/28 11:24:53;;;;;;;1.10;1.00;;;;;;;;;;5112465;28;20035;-84
2022/12/28 11:27:20;;;;;;;1.65;0.80;;;;;;;;;;5110263;28;20027;-81
2022/12/28 11:29:50;;;;;;;1.05;0.95;;;;;;;;;;5112266;28;20051;-83
2022/12/28 11:32:37;;;;;;;1.27;1.00;;;;;;;;;;5094655;28;20027;-82
2022/12/28 11:35:03;;;;;;;1.67;0.90;;;;;;;;;;5111193;28;20042;-80
2022/12/28 11:37:28;;;;;;;2.03;0.90;;;;;;;;;;5111164;28;20473;-82
2022/12/28 11:39:54;;;;;;;1.75;0.90;;;;;;;;;;5111599;28;20035;-80
2022/12/28 11:42:31;;;;;;;4.18;0.95;;;;;;;;;;5112691;28;20027;-80
2022/12/28 11:44:58;;;;;;;1.15;1.00;;;;;;;;;;5112993;28;20028;-79
2022/12/28 11:47:32;;;;;;;0.80;0.80;;;;;;;;;;5083422;28;20023;-81
2022/12/28 11:50:37;;;;;;;1.27;0.85;;;;;;;;;;5098907;28;20044;-80
2022/12/28 11:53:18;;;;;;;1.27;0.73;;;;;;;;;;5103924;28;20520;-83
2022/12/28 11:55:49;;;;;;;2.97;0.80;;;;;;;;;;5097986;28;20038;-82
2022/12/28 11:58:41;;;;;;;2.90;1.00;;;;;;;;;;5111353;28;20153;-80
2022/12/28 12:01:27;;;;;;;1.63;0.90;;;;;;;;;;5112170;28;20032;-81
2022/12/28 12:03:55;;;;;;;1.70;0.90;;;;;;;;;;5069997;28;20375;-83
2022/12/28 12:06:41;;;;;;;9.52;1.10;;;;;;;;;;5112981;28;20019;-84
2022/12/28 12:09:24;;;;;;;1.20;0.90;;;;;;;;;;5112631;28;20478;-80
2022/12/28 12:11:52;;;;;;;2.20;1.33;;;;;;;;;;5116221;28;20026;-82
2022/12/28 12:14:30;;;;;;;5.88;1.75;;;;;;;;;;5116034;28;20482;-83
2022/12/28 12:17:01;;;;;;;5.97;2.63;;;;;;;;;;5097990;28;20367;-83
2022/12/28 12:19:39;;;;;;;12.23;7.78;;;;;;;;;;5115807;28;20030;-82
2022/12/28 12:22:21;;;;;;;23.15;13.85;;;;;;;;;;5115058;28;20024;-85
2022/12/28 12:25:02;;;;;;;34.00;20.42;;;;;;;;;;5115794;28;20382;-88
2022/12/28 12:27:37;;;;;;;45.97;25.95;;;;;;;;;;5116109;28;20024;-83
2022/12/28 12:30:13;;;;;;;54.60;31.42;;;;;;;;;;5115868;28;20028;-81
2022/12/28 12:32:43;;;;;;;72.53;42.17;;;;;;;;;;5114545;28;20111;-81
2022/12/28 12:35:24;;;;;;;109.45;64.57;;;;;;;;;;5114281;28;20027;-83
2022/12/28 12:38:04;;;;;;;140.43;86.97;;;;;;;;;;5114510;28;20031;-82
2022/12/28 12:40:54;;;;;;;165.95;100.30;;;;;;;;;;5114321;28;20024;-81
2022/12/28 12:43:54;;;;;;;173.88;109.90;;;;;;;;;;5114743;28;20023;-81
2022/12/28 12:46:22;;;;;;;165.60;102.82;;;;;;;;;;5115501;27;20476;-86
2022/12/28 12:49:02;;;;;;;174.10;110.13;;;;;;;;;;5115132;28;20397;-82
2022/12/28 12:51:39;;;;;;;176.60;113.30;;;;;;;;;;5115193;28;20490;-84
2022/12/28 12:54:24;;;;;;;170.43;109.78;;;;;;;;;;5115410;28;20039;-84
2022/12/28 12:56:54;;;;;;;170.43;109.95;;;;;;;;;;5115533;28;20019;-84
2022/12/28 12:59:38;;;;;;;163.95;106.45;;;;;;;;;;5114139;28;20028;-82
2022/12/28 13:02:22;;;;;;;;;;;;;;;;;;5115725;28;20235;-82
2022/12/28 13:04:48;;;;;;;168.40;101.47;;;;;;;;;;5115352;28;19915;-85
2022/12/28 13:07:24;;;;;;;157.30;98.25;;;;;;;;;;5114170;28;20035;-85
2022/12/28 13:09:52;;;;;;;151.82;95.60;;;;;;;;;;5114304;28;20386;-86
2022/12/28 13:12:18;;;;;;;142.60;91.72;;;;;;;;;;5114107;28;20028;-84
2022/12/28 13:14:45;;;;;;;148.07;87.38;;;;;;;;;;5115087;28;20027;-85
2022/12/28 13:17:16;;;;;;;131.93;82.03;;;;;;;;;;5096896;28;20027;-85
2022/12/28 13:19:42;;;;;;;128.20;79.80;;;;;;;;;;5113337;28;20034;-84
2022/12/28 13:22:28;;;;;;;132.27;79.13;;;;;;;;;;5113709;28;20024;-84
2022/12/28 13:24:53;;;;;;;121.85;76.15;;;;;;;;;;5113652;28;20019;-84
2022/12/28 13:27:19;;;;;;;115.97;73.50;;;;;;;;;;5114821;28;20039;-85
2022/12/28 13:29:51;;;;;;;105.57;69.65;;;;;;;;;;5113580;28;20047;-84
2022/12/28 13:32:24;;;;;;;107.63;68.00;;;;;;;;;;5096517;28;20381;-85
2022/12/28 13:34:50;;;;;;;107.05;66.00;;;;;;;;;;5113503;28;20027;-87
2022/12/28 13:37:16;;;;;;;100.70;65.25;;;;;;;;;;5115168;28;20115;-85
2022/12/28 13:39:41;;;;;;;94.45;60.47;;;;;;;;;;5116002;28;20371;-86
2022/12/28 13:42:16;;;;;;;96.90;60.25;;;;;;;;;;5086648;28;20180;-86
2022/12/28 13:44:48;;;;;;;84.15;54.67;;;;;;;;;;5075897;28;20035;-87
2022/12/28 13:47:25;;;;;;;81.05;50.13;;;;;;;;;;5076123;28;20093;-87
2022/12/28 13:50:10;;;;;;;79.60;50.33;;;;;;;;;;5093866;28;20031;-86
2022/12/28 13:52:43;;;;;;;79.82;47.28;;;;;;;;;;5094025;28;20032;-87
2022/12/28 13:55:12;;;;;;;73.82;44.08;;;;;;;;;;5093962;28;20463;-84
2022/12/28 13:57:38;;;;;;;72.00;44.63;;;;;;;;;;5093968;28;20019;-85
2022/12/28 14:00:04;;;;;;;63.65;41.83;;;;;;;;;;5092741;28;20098;-84
2022/12/28 14:02:31;;;;;;;56.58;40.05;;;;;;;;;;5093892;28;20032;-85
2022/12/28 14:04:57;;;;;;;54.25;37.13;;;;;;;;;;5093727;28;20043;-85
2022/12/28 14:07:25;;;;;;;55.22;35.83;;;;;;;;;;5092540;28;20032;-87
2022/12/28 14:09:51;;;;;;;55.97;35.38;;;;;;;;;;5075440;28;20036;-86
2022/12/28 14:12:17;;;;;;;49.17;33.28;;;;;;;;;;5075410;28;20073;-81
2022/12/28 14:14:43;;;;;;;44.88;30.73;;;;;;;;;;5093593;28;20032;-85
2022/12/28 14:17:08;;;;;;;49.47;29.58;;;;;;;;;;5092303;28;20555;-81
2022/12/28 14:19:34;;;;;;;47.58;30.02;;;;;;;;;;5092399;28;20024;-81
2022/12/28 14:21:59;;;;;;;43.03;28.27;;;;;;;;;;5093425;28;20111;-81
2022/12/28 14:24:25;;;;;;;42.22;26.55;;;;;;;;;;5092083;28;20024;-82
2022/12/28 14:26:53;;;;;;;38.10;25.27;;;;;;;;;;5092234;28;20387;-83
2022/12/28 14:29:39;;;;;;;32.45;22.33;;;;;;;;;;5090215;28;20138;-81
2022/12/28 14:32:11;;;;;;;33.25;20.75;;;;;;;;;;5092363;28;20043;-83
2022/12/28 14:34:37;;;;;;;32.97;19.42;;;;;;;;;;5091940;28;20035;-82
2022/12/28 14:37:04;;;;;;;30.05;18.60;;;;;;;;;;5075147;28;20032;-83
2022/12/28 14:39:33;;;;;;;25.58;17.73;;;;;;;;;;5075214;28;20418;-82
2022/12/28 14:41:59;;;;;;;23.42;16.45;;;;;;;;;;5091966;28;20028;-82
2022/12/28 14:44:36;;;;;;;29.60;16.42;;;;;;;;;;5092111;28;20036;-83
2022/12/28 14:47:01;;;;;;;24.75;17.55;;;;;;;;;;5075006;28;20031;-83
2022/12/28 14:49:27;;;;;;;28.10;16.05;;;;;;;;;;5093043;28;20389;-84
2022/12/28 14:52:15;;;;;;;26.52;16.52;;;;;;;;;;5091704;28;20130;-85
2022/12/28 14:54:47;;;;;;;23.92;15.70;;;;;;;;;;5072252;28;20039;-84
2022/12/28 14:57:42;;;;;;;24.65;16.00;;;;;;;;;;5092987;28;20099;-84
2022/12/28 15:00:32;;;;;;;24.02;14.75;;;;;;;;;;5082134;28;20044;-83
2022/12/28 15:03:12;;;;;;;24.27;14.30;;;;;;;;;;5091819;28;20024;-83
2022/12/28 15:05:41;;;;;;;21.48;13.95;;;;;;;;;;5092896;28;20020;-83
2022/12/28 15:08:08;;;;;;;25.80;14.57;;;;;;;;;;5093072;28;20039;-83
2022/12/28 15:10:37;;;;;;;18.85;13.43;;;;;;;;;;5092809;28;20054;-83
2022/12/28 15:13:03;;;;;;;21.48;13.45;;;;;;;;;;5092751;28;20035;-83
2022/12/28 15:15:29;;;;;;;20.50;13.00;;;;;;;;;;5092706;28;20032;-83
2022/12/28 15:17:54;;;;;;;18.33;12.77;;;;;;;;;;5091517;28;20119;-82
2022/12/28 15:20:20;;;;;;;17.05;11.73;;;;;;;;;;5092848;28;20048;-83